createdAt,value
2019-06-26T00:11:04.882Z,49
2019-06-26T00:23:04.856Z,50
2019-06-26T00:35:04.792Z,49
2019-06-26T00:47:04.831Z,50
2019-06-26T00:59:04.873Z,51
2019-06-26T01:11:04.818Z,51
2019-06-26T01:23:04.852Z,51
2019-06-26T01:35:04.862Z,53
2019-06-26T01:47:04.821Z,53
2019-06-26T01:59:04.869Z,54
2019-06-26T02:11:04.864Z,55
2019-06-26T02:23:04.884Z,55
2019-06-26T02:35:09.371Z,56
2019-06-26T02:47:18.877Z,56
2019-06-26T02:59:04.829Z,57
2019-06-26T03:11:04.861Z,57
2019-06-26T03:23:04.809Z,57
2019-06-26T03:35:04.870Z,57
2019-06-26T03:47:04.851Z,57
2019-06-26T03:59:04.885Z,57
2019-06-26T04:11:04.878Z,57
2019-06-26T04:23:04.820Z,56
2019-06-26T04:35:04.854Z,56
2019-06-26T04:47:04.880Z,57
2019-06-26T04:59:04.797Z,58
2019-06-26T05:11:04.802Z,59
2019-06-26T05:23:04.879Z,59
2019-06-26T05:35:04.860Z,59
2019-06-26T05:47:07.071Z,43
2019-06-26T05:59:04.791Z,43
2019-06-26T06:11:05.419Z,41
2019-06-26T06:23:04.802Z,42
2019-06-26T06:35:04.828Z,45
2019-06-26T06:47:06.677Z,44
2019-06-26T06:59:04.872Z,42
2019-06-26T07:11:04.861Z,42
2019-06-26T07:23:04.827Z,41
2019-06-26T07:35:04.872Z,43
2019-06-26T07:47:12.742Z,46
2019-06-26T07:59:04.856Z,49
2019-06-26T08:11:06.508Z,49
2019-06-26T08:23:04.954Z,49
2019-06-26T08:35:04.903Z,49
2019-06-26T08:47:04.866Z,48
2019-06-26T08:59:04.873Z,48
2019-06-26T09:11:04.848Z,46
2019-06-26T09:23:04.824Z,47
2019-06-26T09:35:04.847Z,47
2019-06-26T09:47:04.830Z,46
2019-06-26T09:59:04.779Z,46
2019-06-26T10:11:04.852Z,44
2019-06-26T10:23:05.084Z,43
2019-06-26T10:35:04.949Z,42
2019-06-26T10:47:04.854Z,40
2019-06-26T10:59:04.804Z,39
2019-06-26T11:11:04.942Z,38
2019-06-26T11:23:04.875Z,38
2019-06-26T11:35:04.864Z,38
2019-06-26T11:47:04.961Z,39
2019-06-26T11:59:04.771Z,38
2019-06-26T12:11:04.834Z,38
2019-06-26T12:23:04.827Z,37
2019-06-26T12:35:04.798Z,36
2019-06-26T12:47:04.850Z,36
2019-06-26T12:59:04.856Z,35
2019-06-26T13:11:04.852Z,38
2019-06-26T13:23:04.877Z,37
2019-06-26T13:35:04.805Z,36
2019-06-26T13:47:04.837Z,37
2019-06-26T13:59:07.364Z,37
2019-06-26T14:11:07.453Z,37
2019-06-26T14:23:04.847Z,37
2019-06-26T14:35:04.876Z,35
2019-06-26T14:47:04.889Z,34
2019-06-26T14:59:04.836Z,33
2019-06-26T15:11:04.805Z,33
2019-06-26T15:23:04.834Z,33
2019-06-26T15:35:04.967Z,32
2019-06-26T15:47:04.818Z,33
2019-06-26T15:59:04.832Z,34
2019-06-26T16:11:04.849Z,33
2019-06-26T16:23:04.785Z,33
2019-06-26T16:35:05.322Z,34
2019-06-26T16:47:04.883Z,34
2019-06-26T16:59:04.825Z,35
2019-06-26T17:11:04.841Z,36
2019-06-26T17:23:06.265Z,36
2019-06-26T17:35:04.830Z,37
2019-06-26T17:47:05.572Z,37
2019-06-26T17:59:04.820Z,38
2019-06-26T18:11:04.848Z,39
2019-06-26T18:23:07.374Z,40
2019-06-26T18:35:05.337Z,41
2019-06-26T18:47:04.832Z,41
2019-06-26T18:59:04.916Z,42
2019-06-26T19:11:04.853Z,43
2019-06-26T19:23:04.840Z,44
2019-06-26T19:35:18.213Z,44
2019-06-26T19:47:04.871Z,45
2019-06-26T19:59:04.881Z,46
2019-06-26T20:11:05.302Z,46
2019-06-26T20:23:04.814Z,47
2019-06-26T20:35:04.839Z,48
2019-06-26T20:47:04.892Z,49
2019-06-26T20:59:05.260Z,50
2019-06-26T21:11:04.857Z,50
2019-06-26T21:23:17.455Z,51
2019-06-26T21:35:04.856Z,52
2019-06-26T21:47:05.178Z,53
2019-06-26T21:59:04.835Z,55
2019-06-26T22:11:04.863Z,56
2019-06-26T22:23:04.819Z,56
2019-06-26T22:35:04.810Z,56
2019-06-26T22:47:04.772Z,57
2019-06-26T22:59:04.862Z,57
2019-06-26T23:11:04.851Z,57
2019-06-26T23:23:04.840Z,58
2019-06-26T23:35:04.900Z,58
2019-06-26T23:47:04.796Z,59
2019-06-26T23:59:04.797Z,59
